Terminal Aerodrome Forecast
Issued by NWS

Home | Current Version | Previous Version | Text Only | Print | Product List | Glossary On
Versions: 1 2 3 4 5 6 7 8 9 10 11 12 13 14 15 16 17 18 19 20
823
FTUS43 KDLH 221722
TAFHYR
TAF
KHYR 221722Z 2218/2318 19014G23KT P6SM SKC
     FM230100 19012KT P6SM SCT080
     FM230300 20010KT P6SM SKC WS020/21050KT
     FM231100 18008KT P6SM SKC=

USA.gov is the U.S. government's official web portal to all federal, state and local government web resources and services.